Time;durP1;ratioP1;P1;durP2;ratioP2;P2;SDS_P1;SDS_P2;PMS_P1;PMS_P2;Temp;Humidity;BMP_temperature;BMP_pressure;BME280_temperature;BME280_humidity;BME280_pressure;Samples;Min_cycle;Max_cycle;Signal;HPM_P1;HPM_P2
2021/09/30 00:00:56;;;;;;;44.63;41.93;;;;;;;9.64;100.00;102640.95;1940870;74;33071;-77
2021/09/30 00:06:24;;;;;;;46.70;44.13;;;;;;;9.89;100.00;102637.48;1941380;74;33014;-73
2021/09/30 00:11:52;;;;;;;47.13;44.37;;;;;;;9.53;100.00;102635.69;1941190;74;33010;-73
2021/09/30 00:17:33;;;;;;;48.77;45.57;;;;;;;9.38;100.00;102631.08;1941217;74;33084;-74
2021/09/30 00:34:23;;;;;;;47.40;44.60;;;;;;;9.41;100.00;102645.88;1940982;74;33492;-76
2021/09/30 00:40:13;;;;;;;48.37;45.37;;;;;;;9.02;100.00;102640.30;1941336;74;33061;-73
2021/09/30 00:45:31;;;;;;;46.00;43.13;;;;;;;9.10;100.00;102645.52;1941467;74;33572;-73
2021/09/30 00:51:06;;;;;;;48.07;45.03;;;;;;;9.10;100.00;102640.83;1941042;74;33564;-77
2021/09/30 02:20:54;;;;;;;44.37;41.47;;;;;;;8.30;100.00;102578.75;1941115;74;33491;-72
2021/09/30 02:26:32;;;;;;;45.23;42.17;;;;;;;8.49;100.00;102587.38;1940771;74;32992;-68
2021/09/30 03:00:50;;;;;;;45.63;42.77;;;;;;;8.88;100.00;102576.39;1941185;74;33049;-75
2021/09/30 03:06:19;;;;;;;46.53;43.57;;;;;;;8.85;100.00;102571.32;1940948;74;33550;-69
2021/09/30 03:11:50;;;;;;;46.87;44.00;;;;;;;8.71;100.00;102562.31;1940951;74;33516;-68
2021/09/30 03:17:19;;;;;;;48.00;45.07;;;;;;;8.93;100.00;102564.08;1941212;74;33050;-72
2021/09/30 03:22:45;;;;;;;47.87;44.87;;;;;;;8.90;100.00;102563.16;1941413;74;33538;-74
2021/09/30 03:28:11;;;;;;;46.67;43.77;;;;;;;9.14;100.00;102561.66;1941410;74;33037;-74
2021/09/30 03:33:37;;;;;;;47.93;44.73;;;;;;;9.12;100.00;102561.56;1941408;74;33532;-73
2021/09/30 03:39:07;;;;;;;47.77;44.87;;;;;;;9.24;100.00;102557.48;1940877;74;33644;-68
2021/09/30 03:44:31;;;;;;;47.47;44.60;;;;;;;9.40;100.00;102548.50;1940778;74;32966;-77
2021/09/30 03:49:56;;;;;;;47.73;44.77;;;;;;;9.48;100.00;102544.84;1940809;74;33080;-67
2021/09/30 03:55:30;;;;;;;46.03;43.23;;;;;;;9.43;100.00;102540.54;1941376;74;32994;-73
2021/09/30 04:00:51;;;;;;;43.10;40.10;;;;;;;9.49;100.00;102531.82;1919915;74;39782;-72
2021/09/30 04:06:14;;;;;;;44.33;41.57;;;;;;;9.59;100.00;102526.52;1940799;74;33057;-79
2021/09/30 04:11:41;;;;;;;43.90;41.00;;;;;;;9.57;100.00;102526.78;1940973;74;33570;-76
2021/09/30 04:17:06;;;;;;;43.43;40.87;;;;;;;9.76;100.00;102510.87;1941213;74;33066;-72
2021/09/30 04:22:30;;;;;;;44.00;41.20;;;;;;;9.86;100.00;102495.02;1940766;74;33067;-77
2021/09/30 04:27:54;;;;;;;44.00;41.03;;;;;;;9.75;100.00;102482.84;1941068;74;33047;-76
2021/09/30 04:33:19;;;;;;;44.87;42.07;;;;;;;9.85;100.00;102463.64;1941416;74;33449;-72
2021/09/30 04:38:45;;;;;;;45.03;42.13;;;;;;;9.85;100.00;102451.69;1941355;74;33551;-72
2021/09/30 04:44:09;;;;;;;46.53;43.33;;;;;;;9.95;100.00;102441.68;1940881;74;33057;-77
2021/09/30 04:49:34;;;;;;;45.03;42.13;;;;;;;9.94;100.00;102439.98;1941394;74;33007;-74
2021/09/30 04:54:59;;;;;;;46.43;43.40;;;;;;;10.04;100.00;102433.28;1941234;74;32994;-73
2021/09/30 05:00:29;;;;;;;44.80;42.00;;;;;;;10.15;100.00;102434.88;1941470;74;33065;-75
2021/09/30 05:05:54;;;;;;;46.90;43.83;;;;;;;10.13;100.00;102433.77;1941157;74;33544;-68
2021/09/30 05:11:18;;;;;;;44.50;41.40;;;;;;;10.20;100.00;102413.66;1941442;74;33480;-73
2021/09/30 05:16:43;;;;;;;47.67;44.60;;;;;;;10.22;100.00;102421.22;1940764;74;32986;-76
2021/09/30 05:22:07;;;;;;;45.63;42.93;;;;;;;10.35;100.00;102422.89;1941235;74;33004;-75
2021/09/30 05:27:32;;;;;;;48.33;44.97;;;;;;;10.41;100.00;102417.17;1940874;74;33061;-77
2021/09/30 05:33:00;;;;;;;46.67;43.80;;;;;;;10.54;100.00;102413.80;1940974;74;33055;-76
2021/09/30 05:38:24;;;;;;;46.30;43.40;;;;;;;10.44;100.00;102415.28;1940871;74;33047;-69
2021/09/30 05:43:52;;;;;;;45.53;42.73;;;;;;;10.50;100.00;102416.24;1941259;74;33011;-75
2021/09/30 05:49:20;;;;;;;48.63;45.50;;;;;;;10.39;100.00;102420.77;1941335;74;33599;-75
2021/09/30 05:54:47;;;;;;;46.50;43.70;;;;;;;10.32;100.00;102408.08;1941014;74;33081;-78
2021/09/30 06:00:16;;;;;;;49.93;46.57;;;;;;;10.42;100.00;102402.20;1941018;74;33472;-68
2021/09/30 06:11:30;;;;;;;46.70;43.90;;;;;;;10.59;100.00;102377.25;1941021;74;33475;-68
2021/09/30 06:16:51;;;;;;;46.53;43.67;;;;;;;10.66;100.00;102383.49;1940954;74;32979;-69
2021/09/30 06:22:16;;;;;;;45.33;42.47;;;;;;;10.78;100.00;102377.90;1940877;74;33001;-78
2021/09/30 06:27:40;;;;;;;47.23;44.53;;;;;;;10.80;100.00;102368.20;1941067;74;33125;-68
2021/09/30 06:33:06;;;;;;;47.53;44.60;;;;;;;10.78;100.00;102357.05;1940968;74;33048;-78
2021/09/30 06:38:30;;;;;;;48.00;44.83;;;;;;;10.83;100.00;102369.09;1940977;74;32981;-69
2021/09/30 06:43:55;;;;;;;46.60;43.60;;;;;;;10.86;100.00;102375.56;1941053;74;32999;-70
2021/09/30 06:49:19;;;;;;;47.50;44.60;;;;;;;10.90;100.00;102369.80;1940883;74;33128;-69
2021/09/30 06:54:44;;;;;;;48.20;44.60;;;;;;;10.84;100.00;102364.38;1940997;74;33493;-68
2021/09/30 07:00:10;;;;;;;49.13;45.93;;;;;;;10.99;100.00;102356.33;1940790;74;33062;-77
2021/09/30 07:05:37;;;;;;;47.57;44.37;;;;;;;10.98;100.00;102348.22;1941148;74;33054;-69
2021/09/30 07:11:02;;;;;;;48.00;44.70;;;;;;;11.15;100.00;102341.58;1940899;74;33069;-78
2021/09/30 07:16:26;;;;;;;48.03;44.80;;;;;;;11.19;100.00;102334.95;1940806;74;33064;-78
2021/09/30 07:21:52;;;;;;;46.53;43.37;;;;;;;11.26;100.00;102325.88;1940936;74;33002;-68
2021/09/30 07:27:15;;;;;;;48.13;44.70;;;;;;;11.27;100.00;102324.25;1940846;74;32977;-67
2021/09/30 07:32:40;;;;;;;46.90;43.70;;;;;;;11.34;100.00;102323.52;1940861;74;32986;-68
2021/09/30 07:38:06;;;;;;;47.47;44.17;;;;;;;11.51;100.00;102324.06;1940927;74;33541;-78
2021/09/30 07:43:30;;;;;;;48.07;44.33;;;;;;;11.58;100.00;102325.56;1941078;74;33483;-79
2021/09/30 07:48:59;;;;;;;45.67;42.17;;;;;;;11.74;100.00;102330.27;1941134;74;33190;-68
2021/09/30 07:54:23;;;;;;;44.97;41.83;;;;;;;11.89;100.00;102313.48;1940966;74;33504;-77
2021/09/30 07:59:54;;;;;;;44.40;41.20;;;;;;;11.89;100.00;102319.06;1940855;74;33044;-77
2021/09/30 08:05:25;;;;;;;44.47;41.17;;;;;;;12.13;100.00;102319.08;1940888;74;33005;-69
2021/09/30 08:10:49;;;;;;;45.03;41.77;;;;;;;12.16;100.00;102313.83;1940808;74;32989;-68
2021/09/30 08:16:14;;;;;;;45.20;41.90;;;;;;;12.27;100.00;102297.54;1940873;74;33047;-68
2021/09/30 08:21:44;;;;;;;46.63;43.23;;;;;;;12.33;100.00;102301.20;1940999;74;33565;-76
2021/09/30 08:27:11;;;;;;;46.33;42.93;;;;;;;12.40;100.00;102298.23;1941181;74;32971;-68
2021/09/30 08:32:36;;;;;;;46.13;42.60;;;;;;;12.50;100.00;102299.16;1941020;74;33000;-76
2021/09/30 08:38:03;;;;;;;45.83;42.53;;;;;;;12.55;100.00;102292.25;1941075;74;33503;-68
2021/09/30 08:43:28;;;;;;;45.33;41.67;;;;;;;12.61;100.00;102291.76;1941071;74;33474;-76
2021/09/30 08:48:53;;;;;;;44.63;41.30;;;;;;;12.67;100.00;102286.50;1941016;74;33540;-75
2021/09/30 08:54:17;;;;;;;46.70;43.30;;;;;;;12.81;100.00;102282.73;1940821;74;32977;-77
2021/09/30 08:59:43;;;;;;;44.17;40.73;;;;;;;13.04;100.00;102258.67;1941014;74;33657;-77
2021/09/30 09:05:09;;;;;;;45.33;42.17;;;;;;;13.38;100.00;102252.23;1940887;74;32989;-67
2021/09/30 09:10:43;;;;;;;44.00;40.50;;;;;;;13.59;100.00;102240.91;1941089;74;33471;-67
2021/09/30 09:16:11;;;;;;;45.40;42.17;;;;;;;13.77;100.00;102241.00;1941215;74;33469;-76
2021/09/30 09:21:39;;;;;;;48.38;44.80;;;;;;;13.94;100.00;102223.47;1925123;74;28231;-68
2021/09/30 09:27:04;;;;;;;49.37;45.47;;;;;;;14.26;100.00;102208.44;1940838;74;33054;-77
2021/09/30 09:32:28;;;;;;;44.87;41.57;;;;;;;14.35;100.00;102189.48;1940937;74;33601;-69
2021/09/30 09:38:00;;;;;;;43.63;40.43;;;;;;;14.62;100.00;102182.79;1940851;74;33088;-69
2021/09/30 09:43:34;;;;;;;44.17;40.90;;;;;;;14.91;100.00;102173.53;1940842;74;32996;-69
2021/09/30 09:49:02;;;;;;;44.17;41.17;;;;;;;14.99;100.00;102152.52;1940878;74;33142;-68
2021/09/30 09:54:35;;;;;;;44.70;41.57;;;;;;;15.10;100.00;102164.55;1940956;74;32991;-69
2021/09/30 10:00:16;;;;;;;43.50;40.50;;;;;;;15.23;100.00;102155.56;1940947;74;33067;-76
2021/09/30 10:05:40;;;;;;;43.60;40.60;;;;;;;15.41;100.00;102143.70;1941085;74;33523;-68
2021/09/30 10:11:05;;;;;;;45.30;41.80;;;;;;;15.61;100.00;102131.06;1941066;74;32992;-69
2021/09/30 10:16:32;;;;;;;43.67;40.53;;;;;;;15.77;100.00;102122.00;1940854;74;32995;-76
2021/09/30 10:21:57;;;;;;;46.50;43.10;;;;;;;15.87;100.00;102125.56;1941225;74;33064;-74
2021/09/30 10:27:23;;;;;;;45.10;41.97;;;;;;;15.88;100.00;102113.80;1941212;74;33068;-74
2021/09/30 10:32:52;;;;;;;42.97;40.07;;;;;;;16.00;100.00;102104.49;1941352;74;33470;-74
2021/09/30 10:38:30;;;;;;;46.43;43.03;;;;;;;15.85;100.00;102108.78;1941031;74;32988;-69
2021/09/30 10:44:14;;;;;;;47.00;43.43;;;;;;;15.74;100.00;102102.42;1941042;74;32984;-69
2021/09/30 10:49:51;;;;;;;43.63;40.63;;;;;;;15.79;100.00;102084.71;1940956;74;33048;-69
2021/09/30 10:55:32;;;;;;;45.80;42.70;;;;;;;15.85;100.00;102083.00;1940955;74;33173;-77
2021/09/30 11:01:00;;;;;;;43.27;39.83;;;;;;;15.81;100.00;102082.47;1941410;74;32989;-74
2021/09/30 11:06:22;;;;;;;42.80;39.80;;;;;;;15.92;100.00;102078.45;1977549;72;32778;-68
2021/09/30 11:12:11;;;;;;;42.67;39.77;;;;;;;15.91;100.00;102070.64;1941006;74;33077;-76
2021/09/30 11:17:48;;;;;;;41.37;38.63;;;;;;;16.03;100.00;102053.45;1940908;74;33086;-68
2021/09/30 11:23:50;;;;;;;40.50;37.80;;;;;;;16.14;100.00;102035.96;1907413;75;33168;-69
2021/09/30 11:29:31;;;;;;;40.50;37.70;;;;;;;16.32;100.00;102037.48;1941444;74;33048;-74
2021/09/30 11:35:21;;;;;;;39.20;36.83;;;;;;;16.52;100.00;102030.83;1940939;74;32948;-75
2021/09/30 11:40:49;;;;;;;36.47;34.07;;;;;;;16.71;100.00;102026.73;1940785;74;33024;-68
2021/09/30 11:46:28;;;;;;;36.63;34.13;;;;;;;16.79;100.00;101997.45;1940864;74;32936;-69
2021/09/30 11:51:55;;;;;;;41.50;38.80;;;;;;;16.69;100.00;101998.12;1940895;74;33047;-68
2021/09/30 11:57:26;;;;;;;36.80;34.50;;;;;;;16.69;100.00;101989.70;1940801;74;33110;-68
2021/09/30 12:03:07;;;;;;;39.30;36.87;;;;;;;16.68;100.00;101982.45;1941046;74;33484;-69
2021/09/30 12:08:39;;;;;;;40.83;37.87;;;;;;;16.67;100.00;101978.80;1941014;74;31586;-76
2021/09/30 12:14:04;;;;;;;37.87;35.57;;;;;;;16.74;100.00;101968.05;1940839;74;33047;-68
2021/09/30 12:19:34;;;;;;;41.07;38.57;;;;;;;16.98;100.00;101964.39;1941021;74;33479;-68
2021/09/30 12:25:00;;;;;;;40.27;37.57;;;;;;;17.02;100.00;101949.45;1940839;74;31452;-75
2021/09/30 12:30:29;;;;;;;38.63;36.33;;;;;;;17.18;100.00;101926.19;1941430;74;33062;-74
2021/09/30 12:36:00;;;;;;;37.23;35.03;;;;;;;17.28;100.00;101936.69;1940979;74;31092;-76
2021/09/30 12:41:33;;;;;;;41.50;38.83;;;;;;;17.24;100.00;101925.80;1940934;74;31084;-76
2021/09/30 12:47:07;;;;;;;42.83;40.00;;;;;;;17.02;100.00;101919.13;1941161;74;31482;-69
2021/09/30 12:52:32;;;;;;;42.37;39.57;;;;;;;16.97;100.00;101920.03;1940868;74;31135;-73
2021/09/30 12:58:00;;;;;;;41.30;38.37;;;;;;;17.04;100.00;101897.19;1940837;74;31119;-68
2021/09/30 13:03:30;;;;;;;39.93;37.27;;;;;;;17.14;100.00;101909.69;1940848;74;33009;-76
2021/09/30 13:08:54;;;;;;;44.37;41.20;;;;;;;16.98;100.00;101904.03;1941049;74;31676;-76
2021/09/30 13:14:29;;;;;;;42.60;39.50;;;;;;;16.99;100.00;101897.26;1941099;74;31041;-69
2021/09/30 13:20:12;;;;;;;42.70;40.00;;;;;;;17.07;100.00;101893.20;1941193;74;31073;-77
2021/09/30 13:25:41;;;;;;;42.47;39.57;;;;;;;17.20;100.00;101871.98;1941357;74;31063;-74
2021/09/30 13:31:08;;;;;;;43.97;40.93;;;;;;;17.20;100.00;101874.79;1941374;74;31036;-73
2021/09/30 13:36:34;;;;;;;45.67;42.37;;;;;;;16.96;100.00;101867.84;1940990;74;33015;-68
2021/09/30 13:41:59;;;;;;;44.87;41.90;;;;;;;16.93;100.00;101850.77;1941535;74;31598;-74
2021/09/30 13:47:31;;;;;;;43.63;40.33;;;;;;;16.98;100.00;101843.12;1940992;74;31201;-77
2021/09/30 13:52:56;;;;;;;46.23;43.13;;;;;;;16.93;100.00;101836.17;1941096;74;33746;-70
2021/09/30 13:58:21;;;;;;;45.07;41.83;;;;;;;16.95;100.00;101828.27;1940828;74;33000;-69
2021/09/30 14:03:45;;;;;;;44.37;41.20;;;;;;;16.98;100.00;101823.47;1940941;74;31107;-70
2021/09/30 14:09:16;;;;;;;45.13;42.00;;;;;;;17.03;100.00;101823.36;1941106;74;33577;-69
2021/09/30 14:14:41;;;;;;;47.00;44.00;;;;;;;16.98;100.00;101812.81;1941087;74;31040;-69
2021/09/30 14:20:07;;;;;;;48.03;44.90;;;;;;;16.91;100.00;101813.74;1940958;74;31054;-77
2021/09/30 14:25:37;;;;;;;46.43;43.43;;;;;;;16.86;100.00;101816.66;1941102;74;31593;-77
2021/09/30 14:31:08;;;;;;;45.20;42.23;;;;;;;16.89;100.00;101802.00;1941020;74;33483;-69
2021/09/30 14:36:33;;;;;;;46.63;43.60;;;;;;;16.88;100.00;101812.39;1941134;74;31096;-69
2021/09/30 14:41:58;;;;;;;46.80;43.40;;;;;;;16.87;100.00;101793.88;1941175;74;33020;-73
2021/09/30 14:47:42;;;;;;;48.73;45.30;;;;;;;16.93;100.00;101785.66;2009665;71;32872;-68
2021/09/30 14:53:06;;;;;;;48.90;45.47;;;;;;;16.92;100.00;101787.35;1940983;74;31646;-76
2021/09/30 14:58:31;;;;;;;45.97;42.87;;;;;;;16.94;100.00;101780.31;1940955;74;33602;-77
2021/09/30 15:03:56;;;;;;;46.23;43.13;;;;;;;16.98;100.00;101772.95;1940959;74;31054;-77
2021/09/30 15:09:27;;;;;;;46.67;43.23;;;;;;;16.84;100.00;101756.05;1940974;74;33041;-69
2021/09/30 15:14:52;;;;;;;47.53;44.13;;;;;;;16.82;100.00;101746.24;1940980;74;33087;-77
2021/09/30 15:26:00;;;;;;;48.33;44.67;;;;;;;16.70;100.00;101749.52;1941130;74;33682;-69
2021/09/30 15:31:27;;;;;;;48.53;44.80;;;;;;;16.54;100.00;101747.23;1941052;74;33491;-77
2021/09/30 15:36:52;;;;;;;48.13;44.37;;;;;;;16.56;100.00;101735.16;1941348;74;32974;-75
2021/09/30 15:42:17;;;;;;;47.10;43.33;;;;;;;16.73;100.00;101734.04;1943185;74;33139;-75
2021/09/30 15:47:40;;;;;;;48.90;44.77;;;;;;;16.83;100.00;101728.27;1941518;74;33580;-77
2021/09/30 15:53:06;;;;;;;47.83;44.33;;;;;;;16.69;100.00;101738.03;1940775;74;33067;-74
2021/09/30 15:58:31;;;;;;;49.13;45.40;;;;;;;16.60;100.00;101730.63;1941099;74;32980;-70
2021/09/30 16:03:55;;;;;;;49.60;45.57;;;;;;;16.56;100.00;101744.97;1941041;74;33571;-68
2021/09/30 16:09:19;;;;;;;51.27;47.23;;;;;;;16.62;100.00;101726.38;1941062;74;31023;-68
2021/09/30 16:14:48;;;;;;;50.57;47.17;;;;;;;16.56;100.00;101723.94;1941158;74;31075;-73
2021/09/30 16:20:12;;;;;;;51.00;47.10;;;;;;;16.51;100.00;101717.83;1941064;74;33503;-67
2021/09/30 16:25:37;;;;;;;51.77;47.67;;;;;;;16.42;100.00;101716.01;1941066;74;33118;-67
2021/09/30 16:31:02;;;;;;;50.33;46.73;;;;;;;16.37;100.00;101712.71;1941044;74;31053;-68
2021/09/30 16:36:27;;;;;;;51.67;47.63;;;;;;;16.28;100.00;101699.94;1941098;74;33465;-68
2021/09/30 16:41:51;;;;;;;50.73;46.93;;;;;;;16.23;100.00;101694.40;1940870;74;31121;-66
2021/09/30 16:47:18;;;;;;;50.60;47.03;;;;;;;16.08;100.00;101685.39;1940915;74;33040;-74
2021/09/30 16:52:48;;;;;;;49.83;46.17;;;;;;;16.06;100.00;101680.64;1941091;74;33448;-68
2021/09/30 16:58:14;;;;;;;51.87;48.13;;;;;;;16.01;100.00;101658.28;1941110;74;32984;-69
2021/09/30 17:03:38;;;;;;;47.97;44.53;;;;;;;16.02;100.00;101657.99;1922499;71;33190;-76
2021/09/30 17:09:03;;;;;;;51.43;47.73;;;;;;;16.09;100.00;101646.42;1941159;74;33492;-75
2021/09/30 17:14:28;;;;;;;50.33;46.77;;;;;;;16.08;100.00;101641.38;1941232;74;33032;-71
2021/09/30 17:19:53;;;;;;;48.13;44.63;;;;;;;16.08;100.00;101643.34;1941124;74;33002;-71
2021/09/30 17:25:20;;;;;;;48.53;44.90;;;;;;;16.10;100.00;101671.89;1941148;74;33051;-78
2021/09/30 17:30:45;;;;;;;49.73;46.13;;;;;;;16.10;100.00;101674.13;1972384;72;32901;-73
2021/09/30 17:36:10;;;;;;;45.87;42.57;;;;;;;16.12;100.00;101671.87;1941431;74;33521;-71
2021/09/30 17:41:34;;;;;;;48.40;44.77;;;;;;;16.08;100.00;101676.98;1941211;74;33562;-76
2021/09/30 17:47:00;;;;;;;47.17;43.63;;;;;;;15.99;100.00;101677.38;1941093;74;33041;-73
2021/09/30 17:52:28;;;;;;;46.20;43.00;;;;;;;16.04;100.00;101666.11;1941108;74;33148;-73
2021/09/30 17:57:54;;;;;;;46.47;43.17;;;;;;;15.99;100.00;101651.59;1941308;74;33483;-73
2021/09/30 18:03:25;;;;;;;46.67;43.17;;;;;;;16.02;100.00;101645.94;1941068;74;33072;-72
2021/09/30 18:08:52;;;;;;;44.30;40.90;;;;;;;16.03;100.00;101656.86;1941195;74;33000;-78
2021/09/30 18:14:18;;;;;;;45.20;41.83;;;;;;;16.02;100.00;101649.58;1941365;74;33097;-75
2021/09/30 18:19:42;;;;;;;44.03;40.40;;;;;;;16.02;100.00;101650.15;1941104;74;33081;-75
2021/09/30 18:25:11;;;;;;;45.83;42.23;;;;;;;15.98;100.00;101646.28;1941085;74;33018;-75
2021/09/30 18:30:45;;;;;;;45.93;42.53;;;;;;;15.97;100.00;101651.05;1941133;74;33032;-73
2021/09/30 18:36:10;;;;;;;45.87;42.47;;;;;;;15.95;100.00;101653.34;1941122;74;33087;-73
2021/09/30 18:41:36;;;;;;;45.67;42.43;;;;;;;15.93;100.00;101644.39;1941349;74;33100;-72
2021/09/30 18:47:02;;;;;;;47.90;44.47;;;;;;;16.02;100.00;101641.74;1941120;74;32998;-74
2021/09/30 18:52:29;;;;;;;46.97;43.80;;;;;;;15.89;100.00;101633.52;1941309;74;33531;-72
2021/09/30 18:58:14;;;;;;;45.27;42.00;;;;;;;15.86;100.00;101634.13;2010009;71;32935;-72
2021/09/30 19:03:38;;;;;;;46.43;43.10;;;;;;;15.86;100.00;101628.53;1941347;74;33601;-74
2021/09/30 19:09:03;;;;;;;44.33;41.10;;;;;;;15.85;100.00;101634.70;1941366;74;33615;-71
2021/09/30 19:14:27;;;;;;;45.60;42.27;;;;;;;15.87;100.00;101624.59;1941113;74;33078;-74
2021/09/30 19:19:55;;;;;;;45.00;41.70;;;;;;;15.85;100.00;101612.84;1941367;74;33030;-72
2021/09/30 19:25:22;;;;;;;44.53;41.23;;;;;;;15.82;100.00;101621.86;1941390;74;31047;-71
2021/09/30 19:30:46;;;;;;;46.03;42.83;;;;;;;15.80;100.00;101617.95;1941115;74;31164;-75
2021/09/30 19:36:11;;;;;;;45.60;42.37;;;;;;;15.80;100.00;101602.54;1941114;74;31038;-72
2021/09/30 19:41:43;;;;;;;43.03;39.83;;;;;;;15.79;100.00;101591.62;1941291;74;33713;-75
2021/09/30 19:47:14;;;;;;;42.53;39.43;;;;;;;15.74;100.00;101593.13;1941371;74;31121;-74
2021/09/30 19:52:39;;;;;;;43.70;40.50;;;;;;;15.74;100.00;101604.33;1941375;74;31115;-73
2021/09/30 19:58:10;;;;;;;41.50;38.40;;;;;;;15.75;100.00;101593.37;1941323;74;33489;-70
2021/09/30 20:03:35;;;;;;;42.67;39.67;;;;;;;15.73;100.00;101591.45;1941164;74;31126;-71
2021/09/30 20:09:19;;;;;;;42.53;39.47;;;;;;;15.83;100.00;101592.72;2010244;71;32779;-71
2021/09/30 20:14:45;;;;;;;39.20;36.30;;;;;;;15.82;100.00;101591.05;1941126;74;31117;-71
2021/09/30 20:20:29;;;;;;;41.57;38.53;;;;;;;15.83;100.00;101589.32;2009656;71;33382;-72
2021/09/30 20:26:00;;;;;;;40.10;36.97;;;;;;;15.83;100.00;101586.52;1941079;74;31112;-71
2021/09/30 20:31:24;;;;;;;39.70;36.80;;;;;;;15.86;100.00;101572.49;1941310;74;33610;-73
2021/09/30 20:36:49;;;;;;;38.63;35.70;;;;;;;15.88;100.00;101568.80;1941343;74;33568;-71
2021/09/30 20:42:14;;;;;;;44.07;40.67;;;;;;;15.89;100.00;101569.08;1941140;74;31123;-71
2021/09/30 20:47:39;;;;;;;41.13;37.93;;;;;;;15.91;100.00;101571.02;1941302;74;31608;-71
2021/09/30 20:53:05;;;;;;;41.60;38.50;;;;;;;15.93;100.00;101559.76;1941092;74;31131;-76
2021/09/30 20:58:31;;;;;;;42.17;38.87;;;;;;;15.99;100.00;101551.28;1941307;74;33513;-69
2021/09/30 21:03:56;;;;;;;38.90;35.87;;;;;;;15.94;100.00;101546.59;1941077;74;33213;-74
2021/09/30 21:09:20;;;;;;;42.27;38.83;;;;;;;15.92;100.00;101532.03;1941138;74;33013;-71
2021/09/30 21:14:45;;;;;;;42.40;39.20;;;;;;;15.96;100.00;101532.28;1941219;74;31041;-74
2021/09/30 21:20:12;;;;;;;40.00;36.80;;;;;;;15.95;100.00;101523.05;1941332;74;33156;-73
2021/09/30 21:25:37;;;;;;;39.07;36.27;;;;;;;15.91;100.00;101520.59;1941197;74;33034;-73
2021/09/30 21:31:03;;;;;;;41.07;38.03;;;;;;;15.88;100.00;101519.77;1941083;74;33110;-72
2021/09/30 21:36:27;;;;;;;39.20;36.20;;;;;;;15.88;100.00;101512.77;1941350;74;31512;-72
2021/09/30 21:41:53;;;;;;;40.00;37.03;;;;;;;15.89;100.00;101501.83;1941315;74;33013;-72
2021/09/30 21:47:17;;;;;;;39.13;36.30;;;;;;;15.90;100.00;101498.73;1941103;74;32973;-73
2021/09/30 21:52:43;;;;;;;39.53;36.87;;;;;;;15.92;100.00;101490.00;1941247;74;33638;-72
2021/09/30 21:58:10;;;;;;;40.57;38.07;;;;;;;15.94;100.00;101480.73;1941321;74;33670;-72
2021/09/30 22:03:36;;;;;;;37.43;34.73;;;;;;;15.97;100.00;101470.31;1941337;74;33064;-72
2021/09/30 22:09:01;;;;;;;39.33;36.80;;;;;;;15.94;100.00;101462.53;1941276;74;33626;-73
2021/09/30 22:14:27;;;;;;;38.53;35.93;;;;;;;15.99;100.00;101472.81;1941208;74;32987;-72
2021/09/30 22:20:12;;;;;;;40.70;37.77;;;;;;;15.96;100.00;101456.63;2010174;71;32923;-72
2021/09/30 22:25:39;;;;;;;42.10;39.30;;;;;;;15.97;100.00;101452.09;1941107;74;31135;-73
2021/09/30 22:31:05;;;;;;;39.20;36.30;;;;;;;16.00;100.00;101459.08;1941113;74;31111;-72
2021/09/30 22:36:31;;;;;;;39.00;36.20;;;;;;;16.01;100.00;101434.09;1941333;74;32983;-72
2021/09/30 22:41:56;;;;;;;39.47;36.50;;;;;;;16.00;100.00;101428.25;1941312;74;33015;-73
2021/09/30 22:47:21;;;;;;;39.70;37.00;;;;;;;16.04;100.00;101425.93;1941273;74;31542;-74
2021/09/30 22:52:45;;;;;;;39.00;36.20;;;;;;;16.06;100.00;101419.43;1941104;74;32995;-73
2021/09/30 22:58:10;;;;;;;38.00;35.30;;;;;;;16.08;100.00;101421.94;1941233;74;31503;-72
2021/09/30 23:03:34;;;;;;;38.97;36.13;;;;;;;16.05;100.00;101406.55;1941276;74;33501;-72
2021/09/30 23:08:59;;;;;;;39.97;37.27;;;;;;;16.13;100.00;101404.44;1941090;74;31017;-74
2021/09/30 23:14:24;;;;;;;38.23;35.43;;;;;;;16.11;100.00;101396.09;1941345;74;31093;-73
2021/09/30 23:19:48;;;;;;;37.47;34.57;;;;;;;16.16;100.00;101388.98;1941141;74;31027;-72
2021/09/30 23:25:13;;;;;;;37.63;34.90;;;;;;;16.15;100.00;101387.31;1941085;74;33039;-72
2021/09/30 23:30:37;;;;;;;38.60;35.87;;;;;;;16.06;100.00;101374.59;1941111;74;31131;-73
2021/09/30 23:36:01;;;;;;;39.97;37.27;;;;;;;16.16;100.00;101366.00;1941139;74;32950;-74
2021/09/30 23:41:26;;;;;;;37.83;35.10;;;;;;;16.17;100.00;101359.23;1941333;74;32941;-73
2021/09/30 23:47:10;;;;;;;37.70;34.90;;;;;;;16.14;100.00;101347.81;2010064;71;32928;-74
2021/09/30 23:52:35;;;;;;;37.93;35.23;;;;;;;16.19;100.00;101337.91;1941303;74;32952;-72
2021/09/30 23:58:00;;;;;;;37.50;34.73;;;;;;;16.17;100.00;101335.40;1941310;74;33567;-72
